Terminal Aerodrome Forecast
Issued by NWS

Home | Current Version | Previous Version | Graphics & Text | Print | Product List | Glossary On
Versions: 1 2 3 4 5 6 7 8 9 10 11 12 13 14 15 16 17 18 19 20
000
FTUS43 KBIS 282300
TAFMOT
TAF
KMOT 282337Z 2900/2924 32008KT P6SM OVC025
     FM290500 16004KT 3SM BR SCT150
     FM291300 17006KT P6SM SCT120
     FM291400 17007KT P6SM BKN110=

USA.gov is the U.S. government's official web portal to all federal, state and local government web resources and services.